Time;durP1;ratioP1;P1;durP2;ratioP2;P2;SDS_P1;SDS_P2;PMS_P1;PMS_P2;Temp;Humidity;BMP_temperature;BMP_pressure;BME280_temperature;BME280_humidity;BME280_pressure;Samples;Min_cycle;Max_cycle;Signal;HPM_P1;HPM_P2
2022/03/19 00:02:13;;;;;;;14.82;4.20;;;6.70;99.90;;;;;;6208891;23;20341;-80
2022/03/19 00:04:39;;;;;;;16.65;4.20;;;6.70;99.90;;;;;;6184590;23;20021;-80
2022/03/19 00:07:04;;;;;;;14.75;3.92;;;6.70;99.90;;;;;;6210787;23;20013;-80
2022/03/19 00:09:30;;;;;;;16.00;4.18;;;6.70;99.90;;;;;;6216253;23;20016;-80
2022/03/19 00:11:56;;;;;;;13.85;4.10;;;6.70;99.90;;;;;;6214019;23;20040;-80
2022/03/19 00:14:22;;;;;;;14.00;4.35;;;6.60;99.90;;;;;;6183720;23;20043;-80
2022/03/19 00:16:48;;;;;;;14.20;4.00;;;6.60;99.90;;;;;;6184998;23;20016;-80
2022/03/19 00:19:13;;;;;;;22.08;5.07;;;6.60;99.90;;;;;;6184026;23;20025;-80
2022/03/19 00:21:39;;;;;;;16.17;4.38;;;6.60;99.90;;;;;;6211433;23;20020;-80
2022/03/19 00:24:06;;;;;;;13.60;4.53;;;6.50;99.90;;;;;;6211154;23;20080;-80
2022/03/19 00:26:33;;;;;;;18.20;5.22;;;6.50;99.90;;;;;;6210478;23;20013;-80
2022/03/19 00:28:59;;;;;;;15.02;4.28;;;6.50;99.90;;;;;;6210685;23;20079;-80
2022/03/19 00:31:24;;;;;;;13.18;4.18;;;6.50;99.90;;;;;;6184347;23;20341;-80
2022/03/19 00:33:50;;;;;;;21.38;5.13;;;6.50;99.90;;;;;;6210668;23;20372;-80
2022/03/19 00:36:16;;;;;;;20.92;5.55;;;6.50;99.90;;;;;;6183753;23;20047;-80
2022/03/19 00:38:41;;;;;;;13.45;4.20;;;6.50;99.90;;;;;;6210278;23;20012;-80
2022/03/19 00:41:08;;;;;;;14.63;4.82;;;6.40;99.90;;;;;;6210514;23;20020;-80
2022/03/19 00:43:34;;;;;;;14.68;4.03;;;6.40;99.90;;;;;;6211285;23;20009;-80
2022/03/19 00:45:59;;;;;;;15.75;5.35;;;6.30;99.90;;;;;;6208738;23;20448;-79
2022/03/19 00:48:25;;;;;;;15.50;4.38;;;6.30;99.90;;;;;;6210753;23;20112;-80
2022/03/19 00:50:51;;;;;;;12.73;4.38;;;6.30;99.90;;;;;;6211837;23;20092;-80
2022/03/19 00:53:17;;;;;;;14.77;4.25;;;6.20;99.90;;;;;;6211052;23;20050;-80
2022/03/19 00:55:43;;;;;;;17.80;4.78;;;6.20;99.90;;;;;;6183911;23;20048;-80
2022/03/19 00:58:09;;;;;;;15.00;4.75;;;6.20;99.90;;;;;;6212138;23;20078;-80
2022/03/19 01:00:35;;;;;;;13.45;4.32;;;6.20;99.90;;;;;;6209966;23;20445;-80
2022/03/19 01:03:02;;;;;;;17.57;5.00;;;6.20;99.90;;;;;;6211385;23;20020;-80
2022/03/19 01:05:28;;;;;;;17.80;5.07;;;6.20;99.90;;;;;;6211080;23;20012;-80
2022/03/19 01:07:55;;;;;;;15.00;4.53;;;6.20;99.90;;;;;;6209491;23;20470;-80
2022/03/19 01:10:29;;;;;;;20.27;5.07;;;6.10;99.90;;;;;;6212049;23;20019;-78
2022/03/19 01:12:56;;;;;;;13.85;4.50;;;6.10;99.90;;;;;;6209806;23;20067;-80
2022/03/19 01:15:23;;;;;;;17.77;4.90;;;6.10;99.90;;;;;;6210060;23;20017;-80
2022/03/19 01:17:49;;;;;;;17.05;4.70;;;6.10;99.90;;;;;;6183865;23;20051;-80
2022/03/19 01:20:17;;;;;;;20.20;5.20;;;6.10;99.90;;;;;;6210737;23;20020;-80
2022/03/19 01:22:44;;;;;;;16.73;4.80;;;6.10;99.90;;;;;;6210495;23;20601;-80
2022/03/19 01:25:11;;;;;;;12.43;4.55;;;6.00;99.90;;;;;;6210383;23;20032;-80
2022/03/19 01:27:38;;;;;;;20.10;4.82;;;6.00;99.90;;;;;;6211081;23;20017;-80
2022/03/19 01:30:08;;;;;;;18.58;4.82;;;6.00;99.90;;;;;;6209331;23;20134;-80
2022/03/19 01:32:37;;;;;;;16.83;4.40;;;6.00;99.90;;;;;;6212353;23;20024;-80
2022/03/19 01:35:03;;;;;;;16.98;4.68;;;6.00;99.90;;;;;;6208230;23;20024;-80
2022/03/19 01:37:29;;;;;;;15.70;4.97;;;6.00;99.90;;;;;;6211915;23;20020;-80
2022/03/19 01:39:55;;;;;;;16.52;5.15;;;6.00;99.90;;;;;;6210313;23;20020;-80
2022/03/19 01:42:26;;;;;;;12.63;4.80;;;5.90;99.90;;;;;;6183399;23;20016;-80
2022/03/19 01:44:52;;;;;;;15.00;4.70;;;5.90;99.90;;;;;;6211193;23;20095;-80
2022/03/19 01:47:19;;;;;;;14.55;5.10;;;5.90;99.90;;;;;;6184587;23;20013;-80
2022/03/19 01:49:44;;;;;;;15.85;5.30;;;5.90;99.90;;;;;;6182234;23;20020;-80
2022/03/19 01:52:10;;;;;;;14.70;4.53;;;5.90;99.90;;;;;;6209827;23;20016;-80
2022/03/19 01:54:38;;;;;;;17.13;5.03;;;5.80;99.90;;;;;;6181765;23;20017;-80
2022/03/19 01:57:05;;;;;;;14.80;5.05;;;5.90;99.90;;;;;;6207356;23;20380;-80
2022/03/19 01:59:36;;;;;;;13.52;4.70;;;5.80;99.90;;;;;;6183967;23;20453;-80
2022/03/19 02:02:03;;;;;;;16.70;5.15;;;5.80;99.90;;;;;;6190191;23;20399;-80
2022/03/19 02:04:29;;;;;;;14.45;4.93;;;5.80;99.90;;;;;;6210580;23;20086;-80
2022/03/19 02:06:55;;;;;;;15.27;4.95;;;5.80;99.90;;;;;;6210755;23;20024;-80
2022/03/19 02:09:22;;;;;;;15.27;4.85;;;5.80;99.90;;;;;;6186579;23;20132;-80
2022/03/19 02:11:48;;;;;;;13.55;4.78;;;5.70;99.90;;;;;;6211262;23;20029;-80
2022/03/19 02:14:15;;;;;;;16.02;5.25;;;5.70;99.90;;;;;;6212899;23;20452;-80
2022/03/19 02:16:42;;;;;;;14.47;4.77;;;5.70;99.90;;;;;;6212352;23;20474;-80
2022/03/19 02:19:07;;;;;;;18.00;5.43;;;5.70;99.90;;;;;;6210839;23;20244;-80
2022/03/19 02:21:44;;;;;;;13.52;4.95;;;5.70;99.90;;;;;;6211827;23;20016;-80
2022/03/19 02:26:56;;;;;;;17.27;5.35;;;5.60;99.90;;;;;;6213083;23;20020;-80
2022/03/19 02:29:22;;;;;;;15.05;4.88;;;5.60;99.90;;;;;;6211417;23;20012;-75
2022/03/19 02:31:50;;;;;;;15.80;5.13;;;5.60;99.90;;;;;;6184418;23;20404;-75
2022/03/19 02:34:16;;;;;;;18.75;5.07;;;5.60;99.90;;;;;;6211448;23;20022;-75
2022/03/19 02:36:42;;;;;;;17.50;5.80;;;5.60;99.90;;;;;;6183881;23;20043;-75
2022/03/19 02:39:18;;;;;;;19.20;5.30;;;5.50;99.90;;;;;;6211363;23;20555;-75
2022/03/19 02:41:49;;;;;;;15.15;5.50;;;5.50;99.90;;;;;;6211524;23;20023;-75
2022/03/19 02:44:17;;;;;;;16.73;5.28;;;5.50;99.90;;;;;;6185779;23;20016;-75
2022/03/19 02:46:43;;;;;;;;;;;5.50;99.90;;;;;;6211721;23;20017;-75
2022/03/19 02:49:09;;;;;;;16.92;5.97;;;5.40;99.90;;;;;;6212477;23;19920;-75
2022/03/19 02:51:36;;;;;;;14.77;5.70;;;5.50;99.90;;;;;;6212669;23;20063;-75
2022/03/19 02:54:03;;;;;;;18.53;6.23;;;5.40;99.90;;;;;;6181322;23;20344;-75
2022/03/19 02:56:30;;;;;;;;;;;5.40;99.90;;;;;;6214506;23;20020;-75
2022/03/19 02:58:55;;;;;;;15.18;5.90;;;5.40;99.90;;;;;;6212249;23;19926;-75
2022/03/19 03:01:21;;;;;;;19.38;5.57;;;5.40;99.90;;;;;;6211627;23;20009;-75
2022/03/19 03:03:48;;;;;;;16.25;5.80;;;5.40;99.90;;;;;;6211205;23;20047;-75
2022/03/19 03:06:14;;;;;;;15.63;5.80;;;5.40;99.90;;;;;;6208865;23;20032;-75
2022/03/19 03:08:40;;;;;;;24.20;7.50;;;5.30;99.90;;;;;;6211588;23;20346;-75
2022/03/19 03:11:06;;;;;;;19.02;6.38;;;5.30;99.90;;;;;;6210161;23;20047;-75
2022/03/19 03:13:31;;;;;;;19.33;6.45;;;5.30;99.90;;;;;;6211858;23;20020;-75
2022/03/19 03:15:57;;;;;;;17.08;6.72;;;5.30;99.90;;;;;;6184448;23;20345;-75
2022/03/19 03:18:23;;;;;;;17.92;6.22;;;5.30;99.90;;;;;;6213022;23;20012;-76
2022/03/19 03:20:49;;;;;;;19.23;6.50;;;5.30;99.90;;;;;;6209467;23;20032;-75
2022/03/19 03:23:14;;;;;;;20.20;6.47;;;5.30;99.90;;;;;;6184967;23;20092;-75
2022/03/19 03:25:40;;;;;;;18.40;6.15;;;5.30;99.90;;;;;;6184959;23;20345;-75
2022/03/19 03:28:06;;;;;;;19.88;6.88;;;5.30;99.90;;;;;;6210604;23;20025;-75
2022/03/19 03:30:31;;;;;;;18.50;6.57;;;5.30;99.90;;;;;;6211600;23;20023;-75
2022/03/19 03:32:57;;;;;;;17.60;6.53;;;5.30;99.90;;;;;;6183616;23;20063;-75
2022/03/19 03:35:25;;;;;;;18.90;6.38;;;5.30;99.90;;;;;;6211023;23;20094;-75
2022/03/19 03:37:54;;;;;;;20.80;6.47;;;5.20;99.90;;;;;;6210439;23;20393;-75
2022/03/19 03:40:21;;;;;;;18.15;6.25;;;5.20;99.90;;;;;;6185391;23;20074;-75
2022/03/19 03:42:47;;;;;;;20.95;6.85;;;5.20;99.90;;;;;;6209756;23;20099;-75
2022/03/19 03:45:12;;;;;;;15.70;6.03;;;5.20;99.90;;;;;;6212109;23;20036;-75
2022/03/19 03:47:39;;;;;;;18.90;6.68;;;5.20;99.90;;;;;;6185162;23;20024;-75
2022/03/19 03:50:05;;;;;;;14.80;6.63;;;5.10;99.90;;;;;;6215726;23;20021;-75
2022/03/19 03:52:31;;;;;;;21.77;7.38;;;5.10;99.90;;;;;;6220713;23;20025;-75
2022/03/19 03:54:57;;;;;;;19.27;6.88;;;5.10;99.90;;;;;;6186578;23;20024;-75
2022/03/19 03:57:23;;;;;;;20.70;7.90;;;5.10;99.90;;;;;;6211844;23;20020;-75
2022/03/19 03:59:50;;;;;;;16.67;7.07;;;5.10;99.90;;;;;;6213149;23;20023;-76
2022/03/19 04:02:17;;;;;;;17.67;7.20;;;5.10;99.90;;;;;;6212171;23;20082;-76
2022/03/19 04:04:43;;;;;;;21.58;8.13;;;5.00;99.90;;;;;;6208771;23;20012;-76
2022/03/19 04:07:08;;;;;;;16.83;6.50;;;5.00;99.90;;;;;;6211994;23;20017;-75
2022/03/19 04:09:38;;;;;;;16.23;6.43;;;5.00;99.90;;;;;;6209626;23;20096;-76
2022/03/19 04:12:04;;;;;;;16.77;6.80;;;5.00;99.90;;;;;;6183387;23;20528;-75
2022/03/19 04:14:30;;;;;;;19.25;6.63;;;5.00;99.90;;;;;;6183745;23;20056;-75
2022/03/19 04:16:56;;;;;;;16.77;6.57;;;5.00;99.90;;;;;;6207649;23;20437;-76
2022/03/19 04:19:21;;;;;;;17.13;6.60;;;5.00;99.90;;;;;;6210715;23;20075;-76
2022/03/19 04:21:47;;;;;;;20.45;6.50;;;5.00;99.90;;;;;;6182741;23;20384;-76
2022/03/19 04:24:12;;;;;;;15.65;6.57;;;5.00;99.90;;;;;;6210638;23;20025;-75
2022/03/19 04:26:38;;;;;;;17.40;7.03;;;4.90;99.90;;;;;;6185482;23;20017;-75
2022/03/19 04:29:03;;;;;;;16.75;7.00;;;5.00;99.90;;;;;;6184897;23;20028;-75
2022/03/19 04:31:29;;;;;;;14.45;7.07;;;5.00;99.90;;;;;;6211222;23;20550;-75
2022/03/19 04:33:55;;;;;;;15.65;6.00;;;4.90;99.90;;;;;;6209503;23;20070;-75
2022/03/19 04:36:30;;;;;;;19.98;7.53;;;4.90;99.90;;;;;;6211045;23;20020;-75
2022/03/19 04:38:59;;;;;;;18.40;6.40;;;4.90;99.90;;;;;;6182910;23;20500;-75
2022/03/19 04:41:25;;;;;;;21.65;7.68;;;4.90;99.90;;;;;;6212122;23;20309;-75
2022/03/19 04:43:50;;;;;;;17.08;6.65;;;4.80;99.90;;;;;;6209619;23;20028;-76
2022/03/19 04:46:16;;;;;;;20.63;6.72;;;4.80;99.90;;;;;;6210298;23;20456;-75
2022/03/19 04:48:45;;;;;;;17.13;6.20;;;4.80;99.90;;;;;;6184693;23;20017;-75
2022/03/19 04:51:16;;;;;;;17.45;6.93;;;4.80;99.90;;;;;;6183712;23;20021;-75
2022/03/19 04:53:49;;;;;;;15.75;7.30;;;4.80;99.90;;;;;;6209173;23;20029;-75
2022/03/19 04:56:15;;;;;;;17.65;6.72;;;4.80;99.90;;;;;;6212195;23;20346;-75
2022/03/19 04:58:40;;;;;;;17.52;7.32;;;4.80;99.90;;;;;;6211188;23;20071;-75
2022/03/19 05:01:06;;;;;;;17.88;6.40;;;4.80;99.90;;;;;;6211047;23;20012;-75
2022/03/19 05:03:32;;;;;;;20.50;6.95;;;4.80;99.90;;;;;;6185557;23;20035;-75
2022/03/19 05:05:57;;;;;;;19.73;7.03;;;4.80;99.90;;;;;;6210279;23;20309;-75
2022/03/19 05:08:23;;;;;;;16.90;6.38;;;4.80;99.90;;;;;;6211242;23;20020;-75
2022/03/19 05:13:33;;;;;;;18.52;6.68;;;4.80;99.90;;;;;;6211314;23;20017;-75
2022/03/19 05:15:58;;;;;;;18.77;6.30;;;4.80;99.90;;;;;;6209805;23;20074;-75
2022/03/19 05:18:24;;;;;;;16.58;6.40;;;4.80;99.90;;;;;;6210843;23;20017;-75
2022/03/19 05:20:50;;;;;;;18.65;6.40;;;4.80;99.90;;;;;;6181841;23;20491;-75
2022/03/19 05:23:16;;;;;;;18.50;6.38;;;4.80;99.90;;;;;;6185224;23;20314;-75
2022/03/19 05:25:42;;;;;;;17.60;5.57;;;4.80;99.90;;;;;;6212460;23;20314;-75
2022/03/19 05:28:08;;;;;;;17.30;5.90;;;4.80;99.90;;;;;;6210460;23;20071;-75
2022/03/19 05:30:33;;;;;;;14.73;6.45;;;4.80;99.90;;;;;;6211309;23;20021;-75
2022/03/19 05:32:59;;;;;;;20.83;6.28;;;4.70;99.90;;;;;;6183826;23;20028;-75
2022/03/19 05:35:26;;;;;;;18.33;6.13;;;4.70;99.90;;;;;;6210882;23;20103;-75
2022/03/19 05:37:52;;;;;;;15.43;5.68;;;4.70;99.90;;;;;;6212127;23;20091;-76
2022/03/19 05:40:17;;;;;;;14.30;5.35;;;4.70;99.90;;;;;;6212908;23;20452;-75
2022/03/19 05:42:43;;;;;;;18.00;6.68;;;4.70;99.90;;;;;;6192196;23;20031;-75
2022/03/19 05:45:10;;;;;;;16.60;6.05;;;4.70;99.90;;;;;;6186106;23;20403;-75
2022/03/19 05:47:38;;;;;;;19.75;6.45;;;4.70;99.90;;;;;;6211235;23;20017;-75
2022/03/19 05:50:05;;;;;;;14.30;5.72;;;4.70;99.90;;;;;;6185205;23;20028;-75
2022/03/19 05:52:30;;;;;;;18.23;5.70;;;4.70;99.90;;;;;;6213526;23;20019;-75
2022/03/19 05:54:59;;;;;;;19.50;6.10;;;4.70;99.90;;;;;;6210917;23;20024;-76
2022/03/19 05:57:25;;;;;;;18.95;5.88;;;4.70;99.90;;;;;;6213997;23;20016;-75
2022/03/19 05:59:50;;;;;;;19.83;6.10;;;4.70;99.90;;;;;;6211606;23;20017;-75
2022/03/19 06:02:16;;;;;;;16.25;6.28;;;4.70;99.90;;;;;;6212828;23;20108;-75
2022/03/19 06:04:41;;;;;;;17.80;6.10;;;4.70;99.90;;;;;;6210679;23;20440;-75
2022/03/19 06:07:07;;;;;;;12.73;5.30;;;4.70;99.90;;;;;;6183633;23;20024;-75
2022/03/19 06:09:32;;;;;;;15.95;5.55;;;4.70;99.90;;;;;;6211603;23;20025;-75
2022/03/19 06:11:58;;;;;;;19.05;6.50;;;4.70;99.90;;;;;;6214110;23;20421;-75
2022/03/19 06:14:24;;;;;;;16.58;5.90;;;4.70;99.90;;;;;;6212599;23;20440;-75
2022/03/19 06:16:50;;;;;;;17.08;5.68;;;4.80;99.90;;;;;;6210922;23;20024;-75
2022/03/19 06:19:16;;;;;;;14.48;6.63;;;4.80;99.90;;;;;;6213317;23;20021;-75
2022/03/19 06:21:42;;;;;;;18.55;6.07;;;4.80;99.90;;;;;;6212215;23;20024;-76
2022/03/19 06:24:09;;;;;;;17.20;5.50;;;4.90;99.90;;;;;;6184740;23;20454;-75
2022/03/19 06:26:36;;;;;;;18.13;5.82;;;4.90;99.90;;;;;;6212674;23;20096;-75
2022/03/19 06:29:02;;;;;;;20.13;6.55;;;4.90;99.90;;;;;;6184361;23;20063;-75
2022/03/19 06:31:28;;;;;;;15.70;5.85;;;4.90;99.90;;;;;;6210516;23;20012;-75
2022/03/19 06:33:55;;;;;;;16.15;5.78;;;4.90;99.90;;;;;;6211628;23;20039;-75
2022/03/19 06:39:05;;;;;;;15.93;5.70;;;5.00;99.90;;;;;;6211338;23;20016;-76
2022/03/19 06:41:33;;;;;;;17.38;5.88;;;5.10;99.90;;;;;;6211649;23;20074;-75
2022/03/19 06:44:02;;;;;;;17.75;5.63;;;5.10;99.90;;;;;;6212412;23;20024;-75
2022/03/19 06:46:27;;;;;;;16.45;5.63;;;5.20;99.90;;;;;;6157570;23;20459;-75
2022/03/19 06:48:53;;;;;;;15.82;5.88;;;5.20;99.90;;;;;;6183949;23;20031;-75
2022/03/19 06:51:19;;;;;;;16.83;6.30;;;5.30;99.90;;;;;;6210176;23;20108;-75
2022/03/19 06:53:45;;;;;;;23.48;6.47;;;5.30;99.90;;;;;;6212071;23;20429;-79
2022/03/19 06:56:12;;;;;;;15.43;5.70;;;5.40;99.90;;;;;;6184416;23;20479;-81
2022/03/19 06:58:39;;;;;;;17.50;6.53;;;5.40;99.90;;;;;;6208975;23;20096;-81
2022/03/19 07:01:05;;;;;;;17.38;6.57;;;5.40;99.90;;;;;;6208158;23;20079;-81
2022/03/19 07:03:31;;;;;;;20.10;6.57;;;5.50;99.90;;;;;;6211347;23;20009;-81
2022/03/19 07:05:57;;;;;;;17.40;6.13;;;5.60;99.90;;;;;;6207450;23;20023;-81
2022/03/19 07:08:23;;;;;;;19.02;6.35;;;5.60;99.90;;;;;;6183848;23;20030;-81
2022/03/19 07:10:49;;;;;;;19.40;6.25;;;5.70;99.90;;;;;;6207632;23;20091;-82
2022/03/19 07:13:14;;;;;;;19.10;6.40;;;5.80;99.90;;;;;;6208983;23;20069;-79
2022/03/19 07:15:41;;;;;;;18.70;6.50;;;5.80;99.90;;;;;;6210005;23;20040;-81
2022/03/19 07:18:07;;;;;;;17.50;6.40;;;5.90;99.90;;;;;;6183961;23;20353;-81
2022/03/19 07:20:33;;;;;;;19.35;6.85;;;6.00;99.90;;;;;;6210153;23;20252;-81
2022/03/19 07:23:05;;;;;;;21.08;6.60;;;6.00;99.90;;;;;;6210738;23;20027;-81
2022/03/19 07:25:33;;;;;;;16.38;6.30;;;6.10;99.90;;;;;;6210493;23;20055;-80
2022/03/19 07:28:01;;;;;;;18.02;6.82;;;6.10;99.90;;;;;;6182335;23;20017;-81
2022/03/19 07:30:27;;;;;;;18.45;6.85;;;6.10;99.90;;;;;;6210270;23;20027;-80
2022/03/19 07:32:52;;;;;;;13.98;5.90;;;6.20;99.90;;;;;;6187940;23;20073;-80
2022/03/19 07:35:18;;;;;;;18.98;6.38;;;6.30;99.90;;;;;;6184606;23;20056;-80
2022/03/19 07:37:45;;;;;;;18.48;7.32;;;6.40;99.90;;;;;;6182805;23;20020;-81
2022/03/19 07:40:13;;;;;;;13.75;5.85;;;6.40;99.90;;;;;;6209877;23;20444;-80
2022/03/19 07:42:40;;;;;;;19.42;6.80;;;6.50;99.90;;;;;;6208159;23;20510;-80
2022/03/19 07:45:07;;;;;;;19.77;6.75;;;6.60;99.90;;;;;;6182764;23;20043;-80
2022/03/19 07:47:33;;;;;;;18.25;6.53;;;6.60;99.90;;;;;;6208550;23;20012;-81
2022/03/19 07:49:59;;;;;;;19.47;7.03;;;6.70;99.90;;;;;;6181237;23;20025;-81
2022/03/19 07:52:25;;;;;;;18.35;6.70;;;6.70;99.90;;;;;;6209682;23;20480;-80
2022/03/19 07:54:54;;;;;;;17.50;6.18;;;6.80;99.90;;;;;;6208990;23;20013;-80
2022/03/19 07:57:21;;;;;;;15.27;6.00;;;6.90;99.90;;;;;;6209443;23;20483;-80
2022/03/19 07:59:47;;;;;;;16.50;6.38;;;6.90;99.90;;;;;;6209857;23;20092;-81
2022/03/19 08:02:13;;;;;;;20.02;6.32;;;7.00;99.90;;;;;;6209583;23;20016;-80
2022/03/19 08:04:39;;;;;;;18.92;6.65;;;7.00;99.90;;;;;;6209731;23;20017;-80
2022/03/19 08:07:04;;;;;;;20.08;6.13;;;7.10;99.90;;;;;;6209713;23;20017;-80
2022/03/19 08:09:30;;;;;;;17.08;5.72;;;7.20;99.90;;;;;;6182687;23;20028;-80
2022/03/19 08:11:56;;;;;;;17.33;5.88;;;7.20;99.90;;;;;;6182513;23;20021;-82
2022/03/19 08:14:22;;;;;;;17.35;5.78;;;7.30;99.90;;;;;;6208468;23;20027;-81
2022/03/19 08:16:48;;;;;;;16.25;5.75;;;7.30;99.90;;;;;;6182817;23;20383;-83
2022/03/19 08:19:14;;;;;;;18.27;5.80;;;7.40;99.90;;;;;;6186852;23;20021;-80
2022/03/19 08:21:44;;;;;;;18.77;5.07;;;7.50;99.90;;;;;;6213641;23;20460;-79
2022/03/19 08:24:11;;;;;;;13.10;5.05;;;7.60;99.90;;;;;;6224004;23;20021;-83
2022/03/19 08:26:38;;;;;;;17.47;5.07;;;7.70;99.90;;;;;;6208755;23;20047;-82
2022/03/19 08:29:06;;;;;;;17.65;5.57;;;7.70;99.90;;;;;;6226179;23;20266;-82
2022/03/19 08:31:34;;;;;;;17.45;5.68;;;7.80;99.90;;;;;;6223841;23;20020;-82
2022/03/19 08:34:00;;;;;;;18.05;5.18;;;7.80;99.90;;;;;;6186996;23;20110;-83
2022/03/19 08:36:25;;;;;;;16.05;4.72;;;7.90;99.90;;;;;;6187074;23;20332;-83
2022/03/19 08:41:36;;;;;;;18.98;5.78;;;8.00;99.90;;;;;;6212388;23;20526;-84
2022/03/19 08:44:02;;;;;;;16.45;5.15;;;8.10;99.90;;;;;;6210210;23;20045;-87
2022/03/19 08:46:28;;;;;;;13.70;4.68;;;8.10;99.90;;;;;;6184114;23;20024;-83
2022/03/19 08:48:53;;;;;;;16.67;4.80;;;8.20;99.90;;;;;;6214508;23;20470;-82
2022/03/19 08:54:03;;;;;;;15.02;4.72;;;8.30;99.90;;;;;;6222687;23;20021;-86
2022/03/19 08:56:33;;;;;;;13.57;4.95;;;8.40;99.90;;;;;;6222721;23;20023;-85
2022/03/19 08:58:59;;;;;;;15.48;5.40;;;8.50;99.90;;;;;;6220626;23;20023;-82
2022/03/19 09:01:25;;;;;;;16.00;4.32;;;8.50;99.90;;;;;;6219647;23;20020;-81
2022/03/19 09:03:54;;;;;;;16.50;4.25;;;8.60;99.90;;;;;;6194063;23;20020;-83
2022/03/19 09:06:20;;;;;;;18.35;4.70;;;8.60;99.60;;;;;;6219129;23;20017;-80
2022/03/19 09:08:47;;;;;;;13.82;4.43;;;8.70;99.70;;;;;;6213240;23;20023;-80
2022/03/19 09:11:13;;;;;;;17.40;4.90;;;8.70;98.80;;;;;;6212010;23;20024;-82
2022/03/19 09:13:39;;;;;;;14.48;4.32;;;8.80;99.00;;;;;;6210824;23;20013;-81
2022/03/19 09:16:06;;;;;;;12.43;4.38;;;8.90;97.50;;;;;;6209835;23;20075;-82
2022/03/19 09:18:32;;;;;;;15.65;4.22;;;8.90;96.60;;;;;;6186295;23;20028;-77
2022/03/19 09:20:58;;;;;;;13.88;4.30;;;9.00;95.60;;;;;;6186368;23;20021;-81
2022/03/19 09:23:24;;;;;;;14.85;4.00;;;9.00;96.20;;;;;;6217497;23;20017;-81
2022/03/19 09:25:50;;;;;;;13.75;4.40;;;9.10;95.30;;;;;;6211398;23;20087;-82
2022/03/19 09:28:15;;;;;;;18.17;4.10;;;9.20;95.20;;;;;;6185798;23;20025;-78
2022/03/19 09:30:41;;;;;;;13.77;3.70;;;9.20;93.40;;;;;;6213172;23;20048;-81
2022/03/19 09:33:07;;;;;;;15.02;4.35;;;9.20;91.80;;;;;;6210887;23;20104;-81
2022/03/19 09:35:35;;;;;;;15.60;4.88;;;9.30;91.50;;;;;;6212496;23;20020;-81
2022/03/19 09:38:01;;;;;;;12.38;3.97;;;9.40;92.00;;;;;;6213241;23;20019;-81
2022/03/19 09:40:27;;;;;;;13.98;4.72;;;9.40;92.60;;;;;;6213420;23;20017;-81
2022/03/19 09:42:54;;;;;;;11.32;3.42;;;9.50;92.70;;;;;;6211299;23;20016;-81
2022/03/19 09:45:22;;;;;;;12.70;3.78;;;9.50;90.00;;;;;;6212365;23;20047;-81
2022/03/19 09:47:49;;;;;;;15.30;4.10;;;9.60;88.60;;;;;;6210402;23;20019;-81
2022/03/19 09:50:17;;;;;;;16.17;4.80;;;9.60;86.50;;;;;;6212783;23;20016;-81
2022/03/19 09:52:43;;;;;;;14.85;6.70;;;9.70;83.30;;;;;;6211552;23;20313;-80
2022/03/19 09:55:16;;;;;;;16.55;3.97;;;9.70;80.30;;;;;;6183449;23;20021;-76
2022/03/19 09:57:42;;;;;;;13.65;6.18;;;9.80;79.50;;;;;;6211921;23;20376;-76
2022/03/19 10:00:09;;;;;;;14.00;5.43;;;9.80;80.40;;;;;;6212067;23;20579;-80
2022/03/19 10:03:09;;;;;;;15.02;6.50;;;9.80;83.30;;;;;;6211522;23;20310;-77
2022/03/19 10:08:39;;;;;;;13.68;3.28;;;10.00;79.90;;;;;;6209732;23;20032;-74
2022/03/19 10:11:08;;;;;;;12.38;3.45;;;10.10;76.50;;;;;;6211006;23;20012;-74
2022/03/19 10:13:45;;;;;;;13.20;4.60;;;10.10;74.40;;;;;;6210992;23;20020;-73
2022/03/19 10:16:31;;;;;;;12.70;3.55;;;10.20;73.70;;;;;;6211308;23;20076;-76
2022/03/19 10:19:01;;;;;;;9.27;2.83;;;10.20;71.80;;;;;;6211992;23;20016;-75
2022/03/19 10:21:29;;;;;;;12.13;3.17;;;10.30;73.40;;;;;;6213542;23;20016;-74
2022/03/19 10:23:59;;;;;;;10.45;2.85;;;10.30;70.40;;;;;;6212060;23;20017;-81
2022/03/19 10:26:27;;;;;;;10.50;3.00;;;10.30;67.50;;;;;;6214259;23;20017;-83
2022/03/19 10:28:58;;;;;;;12.07;2.60;;;10.40;68.20;;;;;;6186707;23;20023;-78
2022/03/19 10:31:37;;;;;;;9.55;2.60;;;10.50;66.10;;;;;;6213139;23;20016;-80
2022/03/19 10:34:04;;;;;;;7.85;2.13;;;10.60;64.80;;;;;;6212654;23;20542;-82
2022/03/19 10:36:38;;;;;;;8.63;2.20;;;10.60;62.90;;;;;;6211519;23;20595;-80
2022/03/19 10:39:11;;;;;;;8.52;2.42;;;10.70;62.00;;;;;;6186811;23;20025;-79
2022/03/19 10:41:37;;;;;;;10.50;2.35;;;10.70;60.80;;;;;;6187724;23;20020;-85
2022/03/19 10:44:16;;;;;;;7.85;2.38;;;10.80;60.90;;;;;;6211958;23;20102;-82
2022/03/19 10:47:00;;;;;;;11.40;3.47;;;10.80;60.60;;;;;;6186072;23;20027;-81
2022/03/19 10:49:30;;;;;;;7.78;2.70;;;11.00;60.50;;;;;;6214331;23;20025;-79
2022/03/19 10:51:58;;;;;;;6.22;2.38;;;11.00;60.70;;;;;;6210700;23;20021;-77
2022/03/19 10:54:25;;;;;;;9.40;2.33;;;11.00;61.20;;;;;;6210935;23;20317;-78
2022/03/19 10:56:52;;;;;;;8.10;2.10;;;11.10;60.30;;;;;;6210806;23;20110;-79
2022/03/19 10:59:18;;;;;;;11.00;2.83;;;11.20;59.70;;;;;;6212725;23;20016;-76
2022/03/19 11:01:47;;;;;;;9.93;3.70;;;11.30;60.10;;;;;;6213261;23;20020;-79
2022/03/19 11:04:14;;;;;;;7.80;2.28;;;11.40;60.90;;;;;;6212475;23;20012;-78
2022/03/19 11:06:41;;;;;;;7.13;1.67;;;11.50;59.30;;;;;;6211876;23;20460;-76
2022/03/19 11:09:11;;;;;;;;;;;11.50;57.70;;;;;;6212987;23;20012;-77
2022/03/19 11:11:46;;;;;;;5.18;1.60;;;11.50;57.20;;;;;;6192162;23;20007;-80
2022/03/19 11:14:23;;;;;;;6.22;2.10;;;11.60;56.20;;;;;;6215160;23;20067;-78
2022/03/19 11:19:44;;;;;;;5.72;1.73;;;11.70;55.80;;;;;;6212707;23;20017;-79
2022/03/19 11:22:10;;;;;;;7.00;1.63;;;11.70;55.40;;;;;;6212910;23;20027;-84
2022/03/19 11:24:59;;;;;;;7.10;1.95;;;11.80;54.80;;;;;;6187010;23;20016;-78
2022/03/19 11:27:28;;;;;;;6.85;1.92;;;11.90;54.50;;;;;;6211724;23;20028;-83
2022/03/19 11:29:57;;;;;;;4.47;2.00;;;12.00;54.40;;;;;;6212278;23;20023;-79
2022/03/19 11:32:24;;;;;;;5.50;2.15;;;12.00;53.90;;;;;;6212718;23;20020;-78
2022/03/19 11:34:56;;;;;;;6.95;3.40;;;12.10;53.90;;;;;;6185210;23;20446;-83
2022/03/19 11:37:22;;;;;;;5.72;2.38;;;12.20;53.60;;;;;;6212450;23;20012;-82
2022/03/19 11:40:13;;;;;;;5.72;1.83;;;12.20;53.90;;;;;;6210492;23;20040;-79
2022/03/19 11:42:53;;;;;;;5.88;1.88;;;12.30;53.60;;;;;;6212938;23;20021;-75
2022/03/19 11:45:19;;;;;;;7.95;1.60;;;12.40;53.00;;;;;;6213385;23;20013;-82
2022/03/19 11:47:44;;;;;;;4.38;1.67;;;12.40;52.60;;;;;;6211566;23;20074;-80
2022/03/19 11:50:24;;;;;;;5.63;1.85;;;12.30;52.00;;;;;;6211673;23;20021;-81
2022/03/19 11:52:52;;;;;;;4.90;1.38;;;12.40;50.80;;;;;;6212291;23;20027;-77
2022/03/19 11:55:20;;;;;;;4.85;1.50;;;12.40;50.00;;;;;;6210300;23;20027;-79
2022/03/19 11:57:45;;;;;;;4.72;1.63;;;12.30;49.70;;;;;;6211212;23;20024;-75
2022/03/19 12:00:14;;;;;;;5.50;2.55;;;12.30;49.50;;;;;;6184263;23;20021;-75
2022/03/19 12:03:06;;;;;;;4.78;1.88;;;12.40;49.90;;;;;;6209220;23;20024;-75
2022/03/19 12:05:37;;;;;;;4.53;1.50;;;12.40;49.20;;;;;;6184147;23;20025;-80
2022/03/19 12:08:21;;;;;;;4.10;1.48;;;12.40;49.10;;;;;;6211131;23;20100;-80
2022/03/19 12:11:03;;;;;;;4.95;1.83;;;12.50;49.20;;;;;;6212161;23;20019;-79
2022/03/19 12:13:30;;;;;;;3.55;1.45;;;12.50;49.10;;;;;;6217375;23;20087;-76
2022/03/19 12:15:59;;;;;;;4.20;1.70;;;12.50;49.30;;;;;;6208749;23;20028;-78
2022/03/19 12:18:27;;;;;;;4.78;1.58;;;12.60;49.10;;;;;;6212265;23;20012;-77
2022/03/19 12:21:01;;;;;;;6.80;2.08;;;12.60;49.20;;;;;;6209872;23;20095;-77
2022/03/19 12:23:27;;;;;;;4.97;1.95;;;12.60;49.00;;;;;;6211370;23;20021;-79
2022/03/19 12:26:05;;;;;;;4.85;2.50;;;12.60;49.00;;;;;;6211989;23;20020;-78
2022/03/19 12:28:31;;;;;;;5.13;1.52;;;12.70;48.70;;;;;;6212024;23;20031;-79
2022/03/19 12:31:14;;;;;;;3.22;1.25;;;12.70;48.30;;;;;;6210813;23;20062;-85
2022/03/19 12:33:40;;;;;;;6.05;3.35;;;12.70;47.80;;;;;;6188897;23;20025;-78
2022/03/19 12:36:14;;;;;;;5.40;3.08;;;12.70;48.10;;;;;;6189027;23;20055;-80
2022/03/19 12:38:40;;;;;;;6.80;2.30;;;12.70;47.70;;;;;;6224845;23;20519;-77
2022/03/19 12:41:24;;;;;;;7.57;3.60;;;12.70;48.20;;;;;;6220014;23;20024;-81
2022/03/19 12:43:55;;;;;;;5.75;2.60;;;12.80;49.00;;;;;;6215270;23;20025;-78
2022/03/19 12:46:28;;;;;;;9.32;3.28;;;12.80;49.40;;;;;;6211920;23;20016;-81
2022/03/19 12:49:08;;;;;;;8.32;4.10;;;12.90;49.80;;;;;;6212294;23;20095;-77
2022/03/19 12:51:47;;;;;;;9.90;6.13;;;13.00;49.80;;;;;;6184082;23;20025;-87
2022/03/19 12:54:20;;;;;;;4.75;1.90;;;13.00;50.40;;;;;;6213340;23;20017;-85
2022/03/19 12:56:46;;;;;;;5.60;2.13;;;13.10;48.90;;;;;;6211568;23;20025;-77
2022/03/19 12:59:24;;;;;;;6.18;2.42;;;13.10;48.70;;;;;;6211182;23;20005;-81
2022/03/19 13:01:51;;;;;;;6.20;2.58;;;13.10;48.50;;;;;;6217303;23;20078;-81
2022/03/19 13:04:24;;;;;;;9.13;4.22;;;13.10;49.00;;;;;;6211983;23;20023;-79
2022/03/19 13:06:51;;;;;;;6.10;2.42;;;13.10;49.10;;;;;;6184186;23;20044;-82
2022/03/19 13:09:32;;;;;;;4.53;2.20;;;13.20;48.30;;;;;;6211478;23;20048;-80
2022/03/19 13:11:59;;;;;;;5.40;2.13;;;13.10;47.30;;;;;;6210619;23;20079;-82